createdAt,value
2023-08-19T00:00:16.154Z,428.0000
2023-08-19T00:01:18.378Z,428.0000
2023-08-19T00:02:20.588Z,450.0000
2023-08-19T00:03:22.874Z,445.0000
2023-08-19T00:04:24.990Z,436.0000
2023-08-19T00:05:27.213Z,437.0000
2023-08-19T00:06:29.391Z,448.0000
2023-08-19T00:07:31.840Z,459.0000
2023-08-19T00:08:33.887Z,440.0000
2023-08-19T00:09:35.984Z,443.0000
2023-08-19T00:10:38.182Z,457.0000
2023-08-19T00:11:40.415Z,459.0000
2023-08-19T00:12:42.632Z,458.0000
2023-08-19T00:13:44.864Z,457.0000
2023-08-19T00:14:44.900Z,442.0000
2023-08-19T00:15:47.155Z,465.0000
2023-08-19T00:16:49.423Z,469.0000
2023-08-19T00:17:51.658Z,444.0000
2023-08-19T00:18:53.871Z,447.0000
2023-08-19T00:19:56.043Z,450.0000
2023-08-19T00:20:58.204Z,448.0000
2023-08-19T00:22:00.408Z,452.0000
2023-08-19T00:23:02.615Z,445.0000
2023-08-19T00:24:04.845Z,452.0000
2023-08-19T00:25:06.971Z,453.0000
2023-08-19T00:26:09.190Z,443.0000
2023-08-19T00:27:11.350Z,457.0000
2023-08-19T00:28:13.542Z,464.0000
2023-08-19T00:29:15.722Z,458.0000
2023-08-19T00:30:17.913Z,458.0000
2023-08-19T00:31:18.025Z,455.0000
2023-08-19T00:32:20.190Z,451.0000
2023-08-19T00:33:22.399Z,444.0000
2023-08-19T00:34:24.656Z,450.0000
2023-08-19T00:35:26.789Z,457.0000
2023-08-19T00:36:28.968Z,445.0000
2023-08-19T00:37:31.339Z,439.0000
2023-08-19T00:38:33.327Z,435.0000
2023-08-19T00:39:35.528Z,441.0000
2023-08-19T00:40:37.753Z,455.0000
2023-08-19T00:41:39.972Z,442.0000
2023-08-19T00:42:42.211Z,448.0000
2023-08-19T00:43:44.381Z,455.0000
2023-08-19T00:44:46.599Z,439.0000
2023-08-19T00:45:48.740Z,461.0000
2023-08-19T00:46:53.600Z,445.0000
2023-08-19T00:47:53.211Z,464.0000
2023-08-19T00:48:53.247Z,453.0000
2023-08-19T00:49:55.480Z,459.0000
2023-08-19T00:50:57.707Z,453.0000
2023-08-19T00:51:59.928Z,438.0000
2023-08-19T00:53:02.119Z,452.0000
2023-08-19T00:54:04.349Z,438.0000
2023-08-19T00:55:06.592Z,446.0000
2023-08-19T00:56:08.716Z,456.0000
2023-08-19T00:57:10.947Z,452.0000
2023-08-19T00:58:13.120Z,438.0000
2023-08-19T00:59:15.277Z,451.0000
2023-08-19T01:00:17.439Z,435.0000
2023-08-19T01:01:19.584Z,440.0000
2023-08-19T01:02:21.703Z,444.0000
2023-08-19T01:03:23.980Z,457.0000
2023-08-19T01:04:26.130Z,472.0000
2023-08-19T01:05:28.337Z,453.0000
2023-08-19T01:06:30.509Z,480.0000
2023-08-19T01:07:30.830Z,447.0000
2023-08-19T01:08:32.769Z,444.0000
2023-08-19T01:09:35.000Z,467.0000
2023-08-19T01:10:37.163Z,461.0000
2023-08-19T01:11:39.312Z,463.0000
2023-08-19T01:12:41.493Z,453.0000
2023-08-19T01:13:43.709Z,448.0000
2023-08-19T01:14:45.848Z,454.0000
2023-08-19T01:15:48.187Z,454.0000
2023-08-19T01:16:50.168Z,437.0000
2023-08-19T01:17:52.406Z,444.0000
2023-08-19T01:18:54.598Z,466.0000
2023-08-19T01:19:56.799Z,445.0000
2023-08-19T01:20:59.033Z,445.0000
2023-08-19T01:22:01.187Z,434.0000
2023-08-19T01:23:03.378Z,467.0000
2023-08-19T01:24:05.559Z,451.0000
2023-08-19T01:25:07.797Z,452.0000
2023-08-19T01:26:10.148Z,452.0000
2023-08-19T01:27:10.105Z,453.0000
2023-08-19T01:28:12.382Z,452.0000
2023-08-19T01:29:14.633Z,444.0000
2023-08-19T01:30:16.834Z,446.0000
2023-08-19T01:31:19.072Z,454.0000
2023-08-19T01:32:21.254Z,450.0000
2023-08-19T01:33:23.445Z,446.0000
2023-08-19T01:34:25.667Z,442.0000
2023-08-19T01:35:27.911Z,452.0000
2023-08-19T01:36:30.193Z,448.0000
2023-08-19T01:37:32.637Z,455.0000
2023-08-19T01:38:34.633Z,456.0000
2023-08-19T01:39:34.673Z,461.0000
2023-08-19T01:40:36.901Z,463.0000
2023-08-19T01:41:39.109Z,455.0000
2023-08-19T01:42:41.244Z,433.0000
2023-08-19T01:43:43.417Z,441.0000
2023-08-19T01:44:45.624Z,450.0000
2023-08-19T01:45:47.785Z,453.0000
2023-08-19T01:46:50.136Z,446.0000
2023-08-19T01:47:52.296Z,468.0000
2023-08-19T01:48:54.445Z,438.0000
2023-08-19T01:49:56.676Z,462.0000
2023-08-19T01:50:58.855Z,440.0000
2023-08-19T01:52:01.101Z,443.0000
2023-08-19T01:53:03.302Z,469.0000
2023-08-19T01:54:05.416Z,448.0000
2023-08-19T01:55:07.557Z,450.0000
2023-08-19T01:56:09.701Z,487.0000
2023-08-19T01:57:11.938Z,430.0000
2023-08-19T01:58:13.973Z,450.0000
2023-08-19T01:59:16.145Z,467.0000
2023-08-19T02:00:18.308Z,447.0000
2023-08-19T02:01:18.411Z,431.0000
2023-08-19T02:02:20.555Z,439.0000
2023-08-19T02:03:22.744Z,456.0000
2023-08-19T02:04:24.952Z,453.0000
2023-08-19T02:05:27.198Z,462.0000
2023-08-19T02:06:29.384Z,437.0000
2023-08-19T02:07:31.837Z,464.0000
2023-08-19T02:08:33.855Z,469.0000
2023-08-19T02:09:36.092Z,436.0000
2023-08-19T02:10:38.299Z,449.0000
2023-08-19T02:11:40.640Z,455.0000
2023-08-19T02:12:42.764Z,443.0000
2023-08-19T02:13:45.004Z,455.0000
2023-08-19T02:14:47.224Z,455.0000
2023-08-19T02:15:47.338Z,462.0000
2023-08-19T02:16:49.564Z,467.0000
2023-08-19T02:17:51.840Z,462.0000
2023-08-19T02:18:54.033Z,463.0000
2023-08-19T02:19:56.260Z,458.0000
2023-08-19T02:20:58.445Z,479.0000
2023-08-19T02:22:00.698Z,468.0000
2023-08-19T02:23:02.933Z,462.0000
2023-08-19T02:24:05.129Z,458.0000
2023-08-19T02:25:07.343Z,470.0000
2023-08-19T02:26:09.568Z,464.0000
2023-08-19T02:27:09.702Z,466.0000
2023-08-19T02:28:11.972Z,462.0000
2023-08-19T02:29:14.192Z,460.0000
2023-08-19T02:30:16.433Z,460.0000
2023-08-19T02:31:18.680Z,482.0000
2023-08-19T02:32:20.936Z,462.0000
2023-08-19T02:33:23.241Z,466.0000
2023-08-19T02:34:25.515Z,460.0000
2023-08-19T02:35:27.821Z,469.0000
2023-08-19T02:36:27.958Z,465.0000
2023-08-19T02:37:30.535Z,465.0000
2023-08-19T02:38:32.525Z,456.0000
2023-08-19T02:39:34.791Z,461.0000
2023-08-19T02:40:37.037Z,459.0000
2023-08-19T02:41:39.259Z,461.0000
2023-08-19T02:42:41.504Z,463.0000
2023-08-19T02:43:43.744Z,471.0000
2023-08-19T02:44:46.007Z,449.0000
2023-08-19T02:45:46.110Z,452.0000
2023-08-19T02:46:48.419Z,461.0000
2023-08-19T02:47:50.711Z,462.0000
2023-08-19T02:48:52.899Z,473.0000
2023-08-19T02:49:55.054Z,462.0000
2023-08-19T02:50:57.304Z,478.0000
2023-08-19T02:51:59.535Z,465.0000
2023-08-19T02:53:01.782Z,452.0000
2023-08-19T02:54:02.472Z,456.0000
2023-08-19T02:55:04.113Z,457.0000
2023-08-19T02:56:06.370Z,460.0000
2023-08-19T02:57:08.591Z,470.0000
2023-08-19T02:58:10.870Z,470.0000
2023-08-19T02:59:13.001Z,491.0000
2023-08-19T03:00:15.175Z,464.0000
2023-08-19T03:01:17.425Z,470.0000
2023-08-19T03:02:19.651Z,470.0000
2023-08-19T03:03:21.858Z,469.0000
2023-08-19T03:04:24.060Z,471.0000
2023-08-19T03:05:26.277Z,471.0000
2023-08-19T03:06:28.507Z,472.0000
2023-08-19T03:07:28.586Z,472.0000
2023-08-19T03:08:30.828Z,467.0000
2023-08-19T03:09:33.086Z,473.0000
2023-08-19T03:10:35.261Z,463.0000
2023-08-19T03:11:37.487Z,464.0000
2023-08-19T03:12:39.749Z,467.0000
2023-08-19T03:13:41.993Z,476.0000
2023-08-19T03:14:44.251Z,474.0000
2023-08-19T03:15:46.444Z,471.0000
2023-08-19T03:16:48.690Z,478.0000
2023-08-19T03:17:50.917Z,494.0000
2023-08-19T03:18:53.057Z,470.0000
2023-08-19T03:19:55.246Z,464.0000
2023-08-19T03:20:57.376Z,475.0000
2023-08-19T03:21:57.368Z,470.0000
2023-08-19T03:22:59.584Z,482.0000
2023-08-19T03:24:01.798Z,479.0000
2023-08-19T03:25:04.044Z,476.0000
2023-08-19T03:26:06.213Z,465.0000
2023-08-19T03:27:08.463Z,455.0000
2023-08-19T03:28:10.646Z,465.0000
2023-08-19T03:29:12.889Z,467.0000
2023-08-19T03:30:15.105Z,469.0000
2023-08-19T03:31:17.311Z,469.0000
2023-08-19T03:32:19.501Z,470.0000
2023-08-19T03:33:21.869Z,470.0000
2023-08-19T03:34:23.841Z,468.0000
2023-08-19T03:35:26.090Z,468.0000
2023-08-19T03:36:28.285Z,462.0000
2023-08-19T03:37:30.982Z,482.0000
2023-08-19T03:38:30.539Z,452.0000
2023-08-19T03:39:32.730Z,463.0000
2023-08-19T03:40:34.937Z,465.0000
2023-08-19T03:41:37.136Z,442.0000
2023-08-19T03:42:39.346Z,454.0000
2023-08-19T03:43:41.530Z,460.0000
2023-08-19T03:44:43.767Z,460.0000
2023-08-19T03:45:45.999Z,464.0000
2023-08-19T03:46:48.158Z,458.0000
2023-08-19T03:47:50.399Z,464.0000
2023-08-19T03:48:52.582Z,466.0000
2023-08-19T03:49:54.786Z,464.0000
2023-08-19T03:50:57.143Z,479.0000
2023-08-19T03:51:59.261Z,465.0000
2023-08-19T03:53:01.422Z,476.0000
2023-08-19T03:54:03.606Z,479.0000
2023-08-19T03:55:05.773Z,463.0000
2023-08-19T03:57:24.231Z,459.0000
2023-08-19T03:58:25.324Z,459.0000
2023-08-19T03:59:27.541Z,466.0000
2023-08-19T04:00:29.757Z,471.0000
2023-08-19T04:01:32.029Z,475.0000
2023-08-19T04:02:34.145Z,472.0000
2023-08-19T04:03:36.387Z,473.0000
2023-08-19T04:04:38.526Z,468.0000
2023-08-19T04:05:40.707Z,485.0000
2023-08-19T04:06:42.905Z,480.0000
2023-08-19T04:07:45.144Z,475.0000
2023-08-19T04:08:47.293Z,455.0000
2023-08-19T04:09:49.497Z,472.0000
2023-08-19T04:10:49.534Z,465.0000
2023-08-19T04:11:51.749Z,462.0000
2023-08-19T04:12:53.964Z,470.0000
2023-08-19T04:13:56.132Z,467.0000
2023-08-19T04:14:58.324Z,470.0000
2023-08-19T04:16:00.518Z,481.0000
2023-08-19T04:17:02.678Z,472.0000
2023-08-19T04:18:04.911Z,461.0000
2023-08-19T04:19:07.066Z,467.0000
2023-08-19T04:20:09.395Z,494.0000
2023-08-19T04:21:11.470Z,471.0000
2023-08-19T04:22:13.694Z,475.0000
2023-08-19T04:23:15.987Z,473.0000
2023-08-19T04:24:18.183Z,472.0000
2023-08-19T04:25:20.437Z,466.0000
2023-08-19T04:26:22.718Z,477.0000
2023-08-19T04:27:22.790Z,486.0000
2023-08-19T04:28:24.993Z,478.0000
2023-08-19T04:29:27.142Z,486.0000
2023-08-19T04:30:29.366Z,471.0000
2023-08-19T04:31:31.652Z,465.0000
2023-08-19T04:32:33.788Z,488.0000
2023-08-19T04:33:36.046Z,467.0000
2023-08-19T04:34:38.193Z,467.0000
2023-08-19T04:35:40.343Z,482.0000
2023-08-19T04:36:42.551Z,461.0000
2023-08-19T04:37:44.752Z,472.0000
2023-08-19T04:38:47.009Z,462.0000
2023-08-19T04:39:49.185Z,470.0000
2023-08-19T04:40:51.402Z,496.0000
2023-08-19T04:41:53.606Z,491.0000
2023-08-19T04:42:53.693Z,475.0000
2023-08-19T04:43:55.985Z,476.0000
2023-08-19T04:44:58.171Z,500.0000
2023-08-19T04:46:00.358Z,468.0000
2023-08-19T04:47:02.561Z,480.0000
2023-08-19T04:48:04.724Z,477.0000
2023-08-19T04:49:06.886Z,494.0000
2023-08-19T04:50:09.062Z,482.0000
2023-08-19T04:51:11.292Z,492.0000
2023-08-19T04:52:13.497Z,485.0000
2023-08-19T04:53:15.726Z,489.0000
2023-08-19T04:54:17.939Z,482.0000
2023-08-19T04:55:20.146Z,472.0000
2023-08-19T04:56:22.354Z,483.0000
2023-08-19T04:57:24.591Z,499.0000
2023-08-19T04:58:26.818Z,495.0000
2023-08-19T04:59:26.973Z,464.0000
2023-08-19T05:00:29.218Z,476.0000
2023-08-19T05:01:31.570Z,484.0000
2023-08-19T05:02:33.810Z,502.0000
2023-08-19T05:03:36.005Z,490.0000
2023-08-19T05:04:38.253Z,494.0000
2023-08-19T05:05:40.455Z,474.0000
2023-08-19T05:06:42.636Z,487.0000
2023-08-19T05:07:44.817Z,481.0000
2023-08-19T05:08:47.009Z,488.0000
2023-08-19T05:09:49.240Z,488.0000
2023-08-19T05:10:49.340Z,483.0000
2023-08-19T05:11:51.589Z,479.0000
2023-08-19T05:12:53.796Z,487.0000
2023-08-19T05:13:56.054Z,489.0000
2023-08-19T05:14:58.337Z,485.0000
2023-08-19T05:16:00.532Z,487.0000
2023-08-19T05:17:02.736Z,489.0000
2023-08-19T05:18:05.069Z,485.0000
2023-08-19T05:19:07.206Z,472.0000
2023-08-19T05:20:09.527Z,472.0000
2023-08-19T05:21:09.599Z,460.0000
2023-08-19T05:22:11.870Z,488.0000
2023-08-19T05:23:14.131Z,475.0000
2023-08-19T05:24:16.334Z,480.0000
2023-08-19T05:25:18.715Z,480.0000
2023-08-19T05:26:20.847Z,480.0000
2023-08-19T05:27:23.088Z,488.0000
2023-08-19T05:28:25.341Z,488.0000
2023-08-19T05:29:27.579Z,485.0000
2023-08-19T05:30:29.827Z,483.0000
2023-08-19T05:31:29.970Z,472.0000
2023-08-19T05:32:32.213Z,479.0000
2023-08-19T05:33:34.393Z,486.0000
2023-08-19T05:34:36.635Z,473.0000
2023-08-19T05:35:38.874Z,484.0000
2023-08-19T05:36:41.178Z,476.0000
2023-08-19T05:37:43.500Z,485.0000
2023-08-19T05:38:43.659Z,479.0000
2023-08-19T05:39:45.953Z,492.0000
2023-08-19T05:40:48.296Z,477.0000
2023-08-19T05:41:50.554Z,477.0000
2023-08-19T05:42:52.856Z,488.0000
2023-08-19T05:43:55.143Z,488.0000
2023-08-19T05:44:55.271Z,471.0000
2023-08-19T05:45:57.641Z,473.0000
2023-08-19T05:47:41.780Z,476.0000
2023-08-19T05:48:42.985Z,474.0000
2023-08-19T05:49:45.121Z,469.0000
2023-08-19T05:50:47.336Z,464.0000
2023-08-19T05:51:49.383Z,477.0000
2023-08-19T05:52:49.625Z,473.0000
2023-08-19T05:53:51.870Z,462.0000
2023-08-19T05:54:54.091Z,468.0000
2023-08-19T05:55:56.359Z,461.0000
2023-08-19T05:56:58.646Z,458.0000
2023-08-19T05:58:00.905Z,462.0000
2023-08-19T05:59:03.239Z,454.0000
2023-08-19T06:00:05.472Z,464.0000
2023-08-19T06:01:05.641Z,464.0000
2023-08-19T06:02:07.853Z,474.0000
2023-08-19T06:03:10.225Z,460.0000
2023-08-19T06:04:12.365Z,464.0000
2023-08-19T06:05:14.579Z,460.0000
2023-08-19T06:06:16.806Z,466.0000
2023-08-19T06:07:19.055Z,460.0000
2023-08-19T06:08:19.157Z,462.0000
2023-08-19T06:09:21.438Z,467.0000
2023-08-19T06:10:23.683Z,450.0000
2023-08-19T06:11:25.940Z,458.0000
2023-08-19T06:12:28.196Z,470.0000
2023-08-19T06:13:30.387Z,467.0000
2023-08-19T06:14:32.606Z,466.0000
2023-08-19T06:15:34.763Z,469.0000
2023-08-19T06:16:36.911Z,466.0000
2023-08-19T06:17:39.156Z,483.0000
2023-08-19T06:18:41.287Z,482.0000
2023-08-19T06:19:43.459Z,471.0000
2023-08-19T06:20:45.640Z,468.0000
2023-08-19T06:21:47.853Z,474.0000
2023-08-19T06:22:50.058Z,471.0000
2023-08-19T06:23:50.187Z,471.0000
2023-08-19T06:24:52.406Z,469.0000
2023-08-19T06:25:54.670Z,470.0000
2023-08-19T06:26:56.876Z,471.0000
2023-08-19T06:27:59.147Z,467.0000
2023-08-19T06:29:01.391Z,471.0000
2023-08-19T06:30:03.699Z,475.0000
2023-08-19T06:31:05.932Z,469.0000
2023-08-19T06:32:08.163Z,474.0000
2023-08-19T06:33:08.308Z,478.0000
2023-08-19T06:34:10.511Z,476.0000
2023-08-19T06:35:12.780Z,473.0000
2023-08-19T06:36:14.922Z,470.0000
2023-08-19T06:37:17.118Z,470.0000
2023-08-19T06:38:19.346Z,471.0000
2023-08-19T06:39:21.540Z,465.0000
2023-08-19T06:40:23.800Z,469.0000
2023-08-19T06:41:26.043Z,472.0000
2023-08-19T06:42:28.278Z,473.0000
2023-08-19T06:43:30.467Z,472.0000
2023-08-19T06:44:32.723Z,469.0000
2023-08-19T06:45:35.003Z,465.0000
2023-08-19T06:46:35.079Z,467.0000
2023-08-19T06:47:37.307Z,469.0000
2023-08-19T06:48:39.552Z,470.0000
2023-08-19T06:49:41.804Z,470.0000
2023-08-19T06:50:44.091Z,469.0000
2023-08-19T06:51:46.301Z,468.0000
2023-08-19T06:52:48.578Z,466.0000
2023-08-19T06:53:50.829Z,466.0000
2023-08-19T06:54:53.103Z,476.0000
2023-08-19T06:55:55.382Z,469.0000
2023-08-19T06:56:57.599Z,466.0000
2023-08-19T06:57:59.847Z,466.0000
2023-08-19T06:59:02.116Z,462.0000
2023-08-19T07:00:04.378Z,459.0000
2023-08-19T07:01:06.668Z,457.0000
2023-08-19T07:02:08.914Z,457.0000
2023-08-19T07:03:11.168Z,461.0000
2023-08-19T07:04:13.331Z,455.0000
2023-08-19T07:05:13.431Z,455.0000
2023-08-19T07:06:15.700Z,453.0000
2023-08-19T07:07:17.845Z,453.0000
2023-08-19T07:08:20.094Z,451.0000
2023-08-19T07:09:22.342Z,451.0000
2023-08-19T07:10:24.532Z,452.0000
2023-08-19T07:11:26.799Z,453.0000
2023-08-19T07:12:28.881Z,453.0000
2023-08-19T07:13:31.029Z,449.0000
2023-08-19T07:14:33.191Z,446.0000
2023-08-19T07:15:35.371Z,450.0000
2023-08-19T07:16:37.649Z,450.0000
2023-08-19T07:17:39.736Z,450.0000
2023-08-19T07:18:41.893Z,450.0000
2023-08-19T07:19:44.058Z,449.0000
2023-08-19T07:20:46.219Z,450.0000
2023-08-19T07:21:48.429Z,452.0000
2023-08-19T07:22:50.555Z,452.0000
2023-08-19T07:23:54.489Z,449.0000
2023-08-19T07:24:52.757Z,452.0000
2023-08-19T07:25:54.906Z,455.0000
2023-08-19T07:26:57.137Z,456.0000
2023-08-19T07:27:59.262Z,455.0000
2023-08-19T07:29:01.453Z,457.0000
2023-08-19T07:30:03.621Z,459.0000
2023-08-19T07:31:05.769Z,451.0000
2023-08-19T07:32:08.035Z,450.0000
2023-08-19T07:33:10.091Z,452.0000
2023-08-19T07:35:29.601Z,447.0000
2023-08-19T07:36:31.768Z,442.0000
2023-08-19T07:37:34.220Z,442.0000
2023-08-19T07:38:36.136Z,442.0000
2023-08-19T07:39:38.284Z,442.0000
2023-08-19T07:40:40.474Z,442.0000
2023-08-19T07:41:44.810Z,443.0000
2023-08-19T07:42:34.145Z,442.0000
2023-08-19T07:43:34.134Z,445.0000
2023-08-19T07:44:36.297Z,445.0000
2023-08-19T07:45:38.476Z,447.0000
2023-08-19T07:46:40.665Z,446.0000
2023-08-19T07:47:42.961Z,445.0000
2023-08-19T07:48:45.050Z,444.0000
2023-08-19T07:49:35.365Z,442.0000
2023-08-19T07:50:36.576Z,445.0000
2023-08-19T07:51:38.748Z,445.0000
2023-08-19T07:52:40.972Z,446.0000
2023-08-19T07:53:43.137Z,445.0000
2023-08-19T07:54:47.242Z,444.0000
2023-08-19T07:55:47.456Z,445.0000
2023-08-19T07:56:49.626Z,443.0000
2023-08-19T07:57:51.779Z,442.0000
2023-08-19T07:58:53.932Z,442.0000
2023-08-19T07:59:56.050Z,443.0000
2023-08-19T08:00:58.213Z,445.0000
2023-08-19T08:02:00.363Z,447.0000
2023-08-19T08:03:02.592Z,448.0000
2023-08-19T08:04:04.714Z,451.0000
2023-08-19T08:05:06.861Z,454.0000
2023-08-19T08:06:08.948Z,452.0000
2023-08-19T08:07:11.125Z,453.0000
2023-08-19T08:08:13.325Z,454.0000
2023-08-19T08:09:15.505Z,452.0000
2023-08-19T08:10:17.562Z,451.0000
2023-08-19T08:11:19.599Z,449.0000
2023-08-19T08:12:21.641Z,453.0000
2023-08-19T08:13:23.739Z,452.0000
2023-08-19T08:14:23.699Z,451.0000
2023-08-19T08:15:25.827Z,449.0000
2023-08-19T08:16:28.032Z,445.0000
2023-08-19T08:17:30.336Z,445.0000
2023-08-19T08:18:32.403Z,443.0000
2023-08-19T08:19:34.605Z,440.0000
2023-08-19T08:20:36.777Z,436.0000
2023-08-19T08:21:39.007Z,436.0000
2023-08-19T08:22:41.170Z,433.0000
2023-08-19T08:23:43.353Z,433.0000
2023-08-19T08:24:45.556Z,431.0000
2023-08-19T08:25:47.690Z,430.0000
2023-08-19T08:26:49.830Z,429.0000
2023-08-19T08:27:52.016Z,427.0000
2023-08-19T08:28:54.172Z,428.0000
2023-08-19T08:29:56.333Z,427.0000
2023-08-19T08:30:58.512Z,425.0000
2023-08-19T08:32:00.818Z,423.0000
2023-08-19T08:33:04.250Z,420.0000
2023-08-19T08:34:05.066Z,420.0000
2023-08-19T08:35:07.251Z,416.0000
2023-08-19T08:36:09.424Z,417.0000
2023-08-19T08:37:11.606Z,417.0000
2023-08-19T08:38:13.785Z,417.0000
2023-08-19T08:39:13.840Z,416.0000
2023-08-19T08:40:15.962Z,416.0000
2023-08-19T08:41:18.027Z,414.0000
2023-08-19T08:42:20.221Z,413.0000
2023-08-19T08:43:22.436Z,412.0000
2023-08-19T08:44:24.656Z,411.0000
2023-08-19T08:45:26.922Z,409.0000
2023-08-19T08:46:29.053Z,409.0000
2023-08-19T08:47:31.634Z,411.0000
2023-08-19T08:48:33.468Z,409.0000
2023-08-19T08:49:35.667Z,410.0000
2023-08-19T08:50:37.977Z,411.0000
2023-08-19T08:51:40.068Z,411.0000
2023-08-19T08:52:42.244Z,411.0000
2023-08-19T08:53:44.422Z,410.0000
2023-08-19T08:54:46.658Z,406.0000
2023-08-19T08:55:48.867Z,407.0000
2023-08-19T08:56:51.089Z,403.0000
2023-08-19T08:57:51.162Z,405.0000
2023-08-19T08:58:53.362Z,410.0000
2023-08-19T08:59:55.578Z,411.0000
2023-08-19T09:00:57.869Z,412.0000
2023-08-19T09:02:00.052Z,415.0000
2023-08-19T09:03:02.259Z,418.0000
2023-08-19T09:04:04.433Z,419.0000
2023-08-19T09:05:06.688Z,417.0000
2023-08-19T09:06:08.883Z,416.0000
2023-08-19T09:07:11.027Z,418.0000
2023-08-19T09:08:13.179Z,417.0000
2023-08-19T09:09:15.332Z,419.0000
2023-08-19T09:10:17.536Z,421.0000
2023-08-19T09:11:19.725Z,421.0000
2023-08-19T09:12:21.880Z,419.0000
2023-08-19T09:13:24.098Z,420.0000
2023-08-19T09:14:26.305Z,418.0000
2023-08-19T09:15:28.599Z,416.0000
2023-08-19T09:16:28.697Z,414.0000
2023-08-19T09:17:30.838Z,418.0000
2023-08-19T09:18:33.041Z,415.0000
2023-08-19T09:19:35.262Z,422.0000
2023-08-19T09:20:37.491Z,425.0000
2023-08-19T09:21:39.750Z,424.0000
2023-08-19T09:22:41.960Z,421.0000
2023-08-19T09:23:44.199Z,419.0000
2023-08-19T09:24:46.431Z,417.0000
2023-08-19T09:25:48.713Z,416.0000
2023-08-19T09:26:51.050Z,414.0000
2023-08-19T09:27:51.026Z,412.0000
2023-08-19T09:28:53.255Z,413.0000
2023-08-19T09:29:55.434Z,413.0000
2023-08-19T09:30:57.643Z,411.0000
2023-08-19T09:31:59.884Z,411.0000
2023-08-19T09:33:02.123Z,410.0000
2023-08-19T09:34:04.318Z,409.0000
2023-08-19T09:35:06.585Z,410.0000
2023-08-19T09:36:08.858Z,411.0000
2023-08-19T09:37:11.035Z,414.0000
2023-08-19T09:38:13.245Z,417.0000
2023-08-19T09:39:15.462Z,418.0000
2023-08-19T09:40:15.513Z,417.0000
2023-08-19T09:41:17.721Z,416.0000
2023-08-19T09:42:19.932Z,415.0000
2023-08-19T09:43:22.072Z,417.0000
2023-08-19T09:44:24.322Z,417.0000
2023-08-19T09:45:26.509Z,413.0000
2023-08-19T09:46:28.693Z,412.0000
2023-08-19T09:47:30.928Z,409.0000
2023-08-19T09:48:32.988Z,417.0000
2023-08-19T09:49:35.146Z,410.0000
2023-08-19T09:50:37.335Z,410.0000
2023-08-19T09:51:39.515Z,413.0000
2023-08-19T09:52:41.690Z,408.0000
2023-08-19T09:53:43.821Z,408.0000
2023-08-19T09:54:45.988Z,405.0000
2023-08-19T09:55:48.155Z,407.0000
2023-08-19T09:56:50.371Z,408.0000
2023-08-19T09:57:52.520Z,409.0000
2023-08-19T09:58:54.674Z,408.0000
2023-08-19T09:59:56.853Z,407.0000
2023-08-19T10:00:59.026Z,406.0000
2023-08-19T10:02:01.168Z,407.0000
2023-08-19T10:03:03.392Z,408.0000
2023-08-19T10:04:05.523Z,411.0000
2023-08-19T10:05:07.663Z,412.0000
2023-08-19T10:06:09.807Z,410.0000
2023-08-19T10:07:09.797Z,409.0000
2023-08-19T10:08:11.990Z,406.0000
2023-08-19T10:09:14.101Z,408.0000
2023-08-19T10:10:16.254Z,411.0000
2023-08-19T10:11:18.424Z,413.0000
2023-08-19T10:12:20.606Z,411.0000
2023-08-19T10:13:22.903Z,412.0000
2023-08-19T10:14:24.910Z,411.0000
2023-08-19T10:15:27.093Z,410.0000
2023-08-19T10:16:29.260Z,408.0000
2023-08-19T10:17:31.413Z,407.0000
2023-08-19T10:18:33.463Z,404.0000
2023-08-19T10:19:33.471Z,404.0000
2023-08-19T10:20:35.623Z,405.0000
2023-08-19T10:21:37.780Z,404.0000
2023-08-19T10:22:39.904Z,404.0000
2023-08-19T10:23:42.113Z,403.0000
2023-08-19T10:24:44.257Z,403.0000
2023-08-19T10:25:46.439Z,403.0000
2023-08-19T10:26:48.610Z,403.0000
2023-08-19T10:27:50.838Z,402.0000
2023-08-19T10:28:53.006Z,400.0000
2023-08-19T10:29:55.208Z,401.0000
2023-08-19T10:30:57.317Z,401.0000
2023-08-19T10:31:59.460Z,401.0000
2023-08-19T10:33:01.648Z,402.0000
2023-08-19T10:34:03.845Z,399.0000
2023-08-19T10:35:06.606Z,401.0000
2023-08-19T10:36:08.179Z,399.0000
2023-08-19T10:37:10.337Z,400.0000
2023-08-19T10:38:12.468Z,397.0000
2023-08-19T10:39:14.622Z,398.0000
2023-08-19T10:40:16.763Z,399.0000
2023-08-19T10:41:18.922Z,397.0000
2023-08-19T10:42:21.065Z,395.0000
2023-08-19T10:43:21.100Z,394.0000
2023-08-19T10:44:23.241Z,395.0000
2023-08-19T10:45:25.381Z,395.0000
2023-08-19T10:46:27.598Z,393.0000
2023-08-19T10:47:29.790Z,394.0000
2023-08-19T10:48:31.893Z,392.0000
2023-08-19T10:49:34.136Z,390.0000
2023-08-19T10:50:36.221Z,394.0000
2023-08-19T10:51:38.370Z,397.0000
2023-08-19T10:52:40.527Z,397.0000
2023-08-19T10:53:42.678Z,398.0000
2023-08-19T10:54:44.843Z,399.0000
2023-08-19T10:55:46.923Z,397.0000
2023-08-19T10:56:49.037Z,396.0000
2023-08-19T10:57:51.187Z,392.0000
2023-08-19T10:58:53.316Z,388.0000
2023-08-19T10:59:55.399Z,392.0000
2023-08-19T11:00:57.513Z,393.0000
2023-08-19T11:01:59.696Z,392.0000
2023-08-19T11:03:01.841Z,391.0000
2023-08-19T11:04:03.936Z,394.0000
2023-08-19T11:05:06.083Z,394.0000
2023-08-19T11:06:08.149Z,392.0000
2023-08-19T11:07:10.241Z,392.0000
2023-08-19T11:08:12.311Z,394.0000
2023-08-19T11:09:14.428Z,394.0000
2023-08-19T11:10:14.422Z,395.0000
2023-08-19T11:11:16.532Z,394.0000
2023-08-19T11:12:18.689Z,394.0000
2023-08-19T11:13:20.780Z,399.0000
2023-08-19T11:14:22.936Z,401.0000
2023-08-19T11:15:25.050Z,403.0000
2023-08-19T11:16:27.130Z,402.0000
2023-08-19T11:17:29.108Z,402.0000
2023-08-19T11:18:31.157Z,398.0000
2023-08-19T11:19:33.281Z,399.0000
2023-08-19T11:20:35.461Z,404.0000
2023-08-19T11:21:37.621Z,409.0000
2023-08-19T11:22:41.424Z,410.0000
2023-08-19T11:23:41.894Z,410.0000
2023-08-19T11:24:44.073Z,412.0000
2023-08-19T11:25:46.263Z,411.0000
2023-08-19T11:26:48.428Z,411.0000
2023-08-19T11:27:53.490Z,411.0000
2023-08-19T11:28:52.747Z,411.0000
2023-08-19T11:29:54.943Z,412.0000
2023-08-19T11:30:54.990Z,411.0000
2023-08-19T11:31:57.190Z,412.0000
2023-08-19T11:32:59.360Z,412.0000
2023-08-19T11:34:01.517Z,414.0000
2023-08-19T11:35:03.690Z,414.0000
2023-08-19T11:36:05.863Z,417.0000
2023-08-19T11:37:07.933Z,415.0000
2023-08-19T11:38:10.064Z,416.0000
2023-08-19T11:39:12.875Z,416.0000
2023-08-19T11:40:28.379Z,417.0000
2023-08-19T11:41:16.471Z,417.0000
2023-08-19T11:42:18.624Z,415.0000
2023-08-19T11:43:20.757Z,415.0000
2023-08-19T11:44:22.914Z,413.0000
2023-08-19T11:45:25.098Z,410.0000
2023-08-19T11:46:27.206Z,408.0000
2023-08-19T11:47:29.300Z,408.0000
2023-08-19T11:48:31.387Z,404.0000
2023-08-19T11:49:33.525Z,399.0000
2023-08-19T11:50:35.688Z,399.0000
2023-08-19T11:51:37.759Z,399.0000
2023-08-19T11:52:37.705Z,398.0000
2023-08-19T11:53:39.862Z,396.0000
2023-08-19T11:54:42.025Z,397.0000
2023-08-19T11:55:44.243Z,398.0000
2023-08-19T11:56:46.451Z,400.0000
2023-08-19T11:57:48.579Z,399.0000
2023-08-19T11:58:50.685Z,398.0000
2023-08-19T11:59:52.820Z,398.0000
2023-08-19T12:00:54.991Z,397.0000
2023-08-19T12:01:57.159Z,396.0000
2023-08-19T12:02:59.316Z,392.0000
2023-08-19T12:04:01.558Z,389.0000
2023-08-19T12:05:03.593Z,390.0000
2023-08-19T12:06:05.724Z,391.0000
2023-08-19T12:07:07.947Z,391.0000
2023-08-19T12:08:10.061Z,392.0000
2023-08-19T12:09:12.208Z,395.0000
2023-08-19T12:10:14.386Z,397.0000
2023-08-19T12:11:16.537Z,396.0000